Pagina principale
METAR-TAF:

METAR-TAF

Aeroporti :

Agen, Francia

latitudine: 44-11N, longitudine: 000-36E, altezza: 61 m

Osservazione

Il bollettino è stato emesso 30 minuti fa, alle 06:30 UTC
Vento 3 kt da direzioni variabili
Temperature 22°C
Umidità 78%
Pressione 1019 hPa
Visibilità 10 km o più
nessuna nube inferiore a 1500 m e nessun cumulonembo

METAR: LFBA 270630Z AUTO VRB03KT CAVOK 22/18 Q1019 NOSIG

Ora: 09:00 (07:00 UTC)

Previsione

Il bollettino è stato emesso 2 ore e 0 minuti fa, alle 05:00 UTC
Previsione valida dal 27 alle 06 UTC al 27 alle 15 UTC
Vento 5 kt da sud-ovest
Visibilità 10 km o più
nessuna nube inferiore a 1500 m e nessun cumulonembo
A partire da 27 alle 1200 UTC
Vento 6 kt da est
Visibilità 10 km o più
nessuna nube inferiore a 1500 m e nessun cumulonembo

TAF: LFBA 270500Z 2706/2715 23005KT CAVOK FM271200 10006KT CAVOK

Osservazioni e previsioni meteorologiche di più di 4000 aeroporti (messaggi METAR e TAF).

Le stazioni disponibili sono rappresentate dai dischi gialli e rossi sulla carta.

Puntare il mouse per vedere il nome della stazione.

Clicca sopra per visualizzare le osservazioni e previsioni meteorologiche.

Per cambiare la mappa : fare clic sui pulsanti verdi con una croce nera per ingrandire, il pulsante verde con un trattino per diminuire, o sulla freccia verde per le mappe adiacenti.


METAR-TAF: